Historique des mesures à Cassis (13260), France
Quotidien Résumé Juillet 20, 2017 Unités:  Métrique    US   Métrique/US
« Précédent (Jour)
Suivant (Jour) »
Quotidien Hebdomadaire Mensuel Annuel Période au choix
  Maximum: Minimum: Moyenne:
Température: TemperatureC °C 22.8 °C 24.4 °C
Point de rosée: DewpointC °C 12.2 °C 15.7 °C
Humidité: Humidity % 48 % 55 %
Vitesse du vent: 0 km/h 0 km/h 5.1 km/h
Rafales: 0 km/h - -
Vent:- - ESE
Pression: PressurehPa hPa 1007.7 hPa -
Précipitations: 0.0 mm    
Historical Graphs
 
 
Mesures pour : Juillet 20, 2017
Heure Temperature Point de rosée Pression Vent Vitesse du vent Rafales Humidité Pluie (par heure) Conditions
TemperatureC °C DewpointC °C PressurehPa hPa Calm     Humidity % HourlyPrecipMM mm SoftwareType W/m2
00:11 24.6 °C 19.4 °C 1010.7 hPa Calm     73 % 0.0 mm open2300-1.11 W/m2
01:11 24.1 °C 19.2 °C 1009.7 hPa NNW 5.1 km/h 5.1 km/h 74 % 0.0 mm open2300-1.11 W/m2
02:11 24.0 °C 17.0 °C 1010.0 hPa Calm     65 % 0.0 mm open2300-1.11 W/m2
03:11 23.9 °C 15.1 °C 1010.0 hPa Calm   6.4 km/h 58 % 0.0 mm open2300-1.11 W/m2
04:11 23.8 °C 13.3 °C 1011.4 hPa WNW 20.9 km/h 20.9 km/h 52 % 0.0 mm open2300-1.11 W/m2
05:11 23.9 °C 15.4 °C 1011.1 hPa North 26.7 km/h 44.1 km/h 59 % 0.0 mm open2300-1.11 W/m2
06:11 23.4 °C 14.9 °C 1010.4 hPa North 6.4 km/h 6.4 km/h 59 % 0.0 mm open2300-1.11 W/m2
07:11 23.3 °C 15.8 °C 1010.4 hPa NNE 6.4 km/h 12.2 km/h 63 % 0.0 mm open2300-1.11 W/m2
08:11 22.8 °C 15.6 °C 1009.4 hPa NNE 2.3 km/h 7.6 km/h 64 % 0.0 mm open2300-1.11 W/m2
09:11 23.3 °C 16.1 °C 1009.4 hPa Calm     64 % 0.0 mm open2300-1.11 W/m2
10:11 25.5 °C 16.6 °C 1009.4 hPa SSE 17.9 km/h 17.9 km/h 58 % 0.0 mm open2300-1.11 W/m2
11:11 26.8 °C 17.8 °C 1009.0 hPa East 4.2 km/h 8 km/h 58 % 0.0 mm open2300-1.11 W/m2
12:11 26.4 °C 16.9 °C 1009.7 hPa Calm   3.4 km/h 56 % 0.0 mm open2300-1.11 W/m2
13:11 29.5 °C 19.2 °C 1009.4 hPa SSE 5.1 km/h 19.6 km/h 54 % 0.0 mm open2300-1.11 W/m2
14:11 29.2 °C 17.4 °C 1009.0 hPa SSE 12.2 km/h 12.2 km/h 49 % 0.0 mm open2300-1.11 W/m2
15:11 28.9 °C 17.5 °C 1009.0 hPa South 6.4 km/h 6.4 km/h 50 % 0.0 mm open2300-1.11 W/m2
16:11 28.3 °C 17.2 °C 1009.4 hPa Calm   4.7 km/h 51 % 0.0 mm open2300-1.11 W/m2
17:11 26.3 °C 18.2 °C 1009.0 hPa Calm     60 % 0.0 mm open2300-1.11 W/m2
18:11 26.4 °C 17.2 °C 1008.4 hPa Calm     57 % 0.0 mm open2300-1.11 W/m2
19:11 26.5 °C 16.1 °C 1007.7 hPa North 2.9 km/h 3.4 km/h 53 % 0.0 mm open2300-1.11 W/m2
20:11 26.6 °C 15.9 °C 1007.7 hPa NW 8 km/h 8.9 km/h 52 % 0.0 mm open2300-1.11 W/m2
21:11 25.5 °C 15.8 °C 1007.7 hPa NNE 2.3 km/h 2.3 km/h 55 % 0.0 mm open2300-1.11 W/m2
22:11 24.3 °C 13.3 °C 1008.4 hPa Calm   2.9 km/h 50 % 0.0 mm open2300-1.11 W/m2
23:11 23.9 °C 12.2 °C 1008.0 hPa NNE 2.3 km/h 5.1 km/h 48 % 0.0 mm open2300-1.11 W/m2
Observations météo à CASSIS
WU-History script by Weather Underground - 1 mb